sensor_id;sensor_type;location;lat;lon;timestamp;pressure;altitude;pressure_sealevel;temperature;humidity
59409;BME280;45213;32.654;-115.458;2022-09-12T07:17:21;101225.06;;;28.02;73.71
59409;BME280;45213;32.654;-115.458;2022-09-12T07:19:48;101224.91;;;28.05;73.75
59409;BME280;45213;32.654;-115.458;2022-09-12T07:22:17;101230.25;;;28.05;74.53
59409;BME280;45213;32.654;-115.458;2022-09-12T07:24:44;101208.00;;;27.89;75.01
59409;BME280;45213;32.654;-115.458;2022-09-12T07:27:11;101220.22;;;27.93;75.69
59409;BME280;45213;32.654;-115.458;2022-09-12T07:29:37;101227.34;;;27.94;75.36
59409;BME280;45213;32.654;-115.458;2022-09-12T07:32:05;101224.81;;;27.91;75.53
59409;BME280;45213;32.654;-115.458;2022-09-12T07:34:33;101225.59;;;27.93;75.37
59409;BME280;45213;32.654;-115.458;2022-09-12T07:37:01;101232.69;;;27.94;74.84
59409;BME280;45213;32.654;-115.458;2022-09-12T07:39:30;101201.47;;;27.77;74.36
59409;BME280;45213;32.654;-115.458;2022-09-12T07:41:57;101211.78;;;27.85;74.85
59409;BME280;45213;32.654;-115.458;2022-09-12T07:44:25;101209.97;;;27.85;74.55
59409;BME280;45213;32.654;-115.458;2022-09-12T07:46:54;101221.19;;;27.92;74.47
59409;BME280;45213;32.654;-115.458;2022-09-12T07:49:20;101222.84;;;27.95;74.25
59409;BME280;45213;32.654;-115.458;2022-09-12T07:51:47;101199.00;;;27.90;74.05
59409;BME280;45213;32.654;-115.458;2022-09-12T07:54:14;101220.41;;;28.06;73.59
59409;BME280;45213;32.654;-115.458;2022-09-12T07:56:40;101214.00;;;28.08;72.98
59409;BME280;45213;32.654;-115.458;2022-09-12T07:59:07;101212.44;;;28.04;73.35
59409;BME280;45213;32.654;-115.458;2022-09-12T08:01:34;101215.13;;;28.04;74.17
59409;BME280;45213;32.654;-115.458;2022-09-12T08:04:01;101214.47;;;28.01;73.90
59409;BME280;45213;32.654;-115.458;2022-09-12T08:06:33;101213.59;;;28.00;73.90
59409;BME280;45213;32.654;-115.458;2022-09-12T08:09:03;101194.63;;;27.89;73.37
59409;BME280;45213;32.654;-115.458;2022-09-12T08:11:30;101215.78;;;27.94;73.53
59409;BME280;45213;32.654;-115.458;2022-09-12T08:13:57;101211.63;;;27.88;74.03
59409;BME280;45213;32.654;-115.458;2022-09-12T08:16:28;101204.56;;;27.87;74.23
59409;BME280;45213;32.654;-115.458;2022-09-12T08:18:56;101205.41;;;27.87;74.29
59409;BME280;45213;32.654;-115.458;2022-09-12T08:21:28;101214.38;;;27.86;74.62
59409;BME280;45213;32.654;-115.458;2022-09-12T08:23:57;101202.97;;;27.83;74.75
59409;BME280;45213;32.654;-115.458;2022-09-12T08:26:26;101199.50;;;27.81;74.78
59409;BME280;45213;32.654;-115.458;2022-09-12T08:28:53;101197.69;;;27.81;75.26
59409;BME280;45213;32.654;-115.458;2022-09-12T08:31:21;101190.69;;;27.79;75.35
59409;BME280;45213;32.654;-115.458;2022-09-12T08:33:49;101197.09;;;27.76;75.84
59409;BME280;45213;32.654;-115.458;2022-09-12T08:36:18;101186.47;;;27.75;75.86
59409;BME280;45213;32.654;-115.458;2022-09-12T08:38:48;101204.06;;;27.79;75.68
59409;BME280;45213;32.654;-115.458;2022-09-12T08:42:00;101177.66;;;27.73;74.77
59409;BME280;45213;32.654;-115.458;2022-09-12T08:52:04;101166.19;;;27.70;73.62
59409;BME280;45213;32.654;-115.458;2022-09-12T08:54:33;101171.19;;;27.77;73.65
59409;BME280;45213;32.654;-115.458;2022-09-12T08:57:04;101176.81;;;27.72;73.66
59409;BME280;45213;32.654;-115.458;2022-09-12T08:59:38;101171.72;;;27.67;73.56
59409;BME280;45213;32.654;-115.458;2022-09-12T09:14:18;101171.31;;;27.59;71.84
59409;BME280;45213;32.654;-115.458;2022-09-12T09:17:12;101169.63;;;27.57;71.68
59409;BME280;45213;32.654;-115.458;2022-09-12T09:19:45;101176.03;;;27.54;71.87
59409;BME280;45213;32.654;-115.458;2022-09-12T09:22:42;101173.47;;;27.53;72.20
59409;BME280;45213;32.654;-115.458;2022-09-12T09:25:24;101179.31;;;27.59;73.48
59409;BME280;45213;32.654;-115.458;2022-09-12T09:28:05;101182.00;;;27.59;72.52
59409;BME280;45213;32.654;-115.458;2022-09-12T09:30:34;101191.41;;;27.66;72.20
59409;BME280;45213;32.654;-115.458;2022-09-12T09:33:05;101180.69;;;27.66;72.36
59409;BME280;45213;32.654;-115.458;2022-09-12T09:35:44;101182.41;;;27.67;72.06
59409;BME280;45213;32.654;-115.458;2022-09-12T09:41:09;101187.44;;;27.74;72.43
59409;BME280;45213;32.654;-115.458;2022-09-12T09:43:39;101174.97;;;27.73;72.22
59409;BME280;45213;32.654;-115.458;2022-09-12T09:46:09;101181.03;;;27.76;72.28
59409;BME280;45213;32.654;-115.458;2022-09-12T09:48:40;101178.28;;;27.78;72.59
59409;BME280;45213;32.654;-115.458;2022-09-12T09:51:09;101183.72;;;27.76;71.66
59409;BME280;45213;32.654;-115.458;2022-09-12T09:53:59;101187.25;;;27.77;71.36
59409;BME280;45213;32.654;-115.458;2022-09-12T09:56:34;101162.13;;;27.63;71.64
59409;BME280;45213;32.654;-115.458;2022-09-12T09:59:19;101177.31;;;27.79;72.66
59409;BME280;45213;32.654;-115.458;2022-09-12T10:01:59;101178.69;;;27.70;73.21
59409;BME280;45213;32.654;-115.458;2022-09-12T10:04:35;101171.91;;;27.64;73.47
59409;BME280;45213;32.654;-115.458;2022-09-12T10:07:04;101182.59;;;27.64;73.74
59409;BME280;45213;32.654;-115.458;2022-09-12T10:09:33;101171.91;;;27.64;73.75
59409;BME280;45213;32.654;-115.458;2022-09-12T10:12:18;101170.41;;;27.59;73.87
59409;BME280;45213;32.654;-115.458;2022-09-12T10:14:57;101166.38;;;27.52;74.55
59409;BME280;45213;32.654;-115.458;2022-09-12T10:17:25;101171.72;;;27.52;75.02
59409;BME280;45213;32.654;-115.458;2022-09-12T10:19:57;101129.69;;;27.38;74.89
59409;BME280;45213;32.654;-115.458;2022-09-12T10:22:26;101172.06;;;27.61;74.84
59409;BME280;45213;32.654;-115.458;2022-09-12T10:24:57;101162.25;;;27.62;75.34
59409;BME280;45213;32.654;-115.458;2022-09-12T10:27:30;101157.22;;;27.56;75.00
59409;BME280;45213;32.654;-115.458;2022-09-12T10:30:06;101163.44;;;27.56;75.42
59409;BME280;45213;32.654;-115.458;2022-09-12T10:32:41;101159.13;;;27.54;75.66
59409;BME280;45213;32.654;-115.458;2022-09-12T10:35:47;101156.00;;;27.45;75.53
59409;BME280;45213;32.654;-115.458;2022-09-12T10:38:22;101168.44;;;27.46;75.66
59409;BME280;45213;32.654;-115.458;2022-09-12T10:40:59;101159.72;;;27.43;75.22
59409;BME280;45213;32.654;-115.458;2022-09-12T10:46:20;101167.41;;;27.49;76.32
59409;BME280;45213;32.654;-115.458;2022-09-12T10:48:51;101168.63;;;27.43;76.06
59409;BME280;45213;32.654;-115.458;2022-09-12T10:51:37;101176.28;;;27.49;76.16
59409;BME280;45213;32.654;-115.458;2022-09-12T10:54:06;101173.88;;;27.45;76.30
59409;BME280;45213;32.654;-115.458;2022-09-12T10:56:38;101181.56;;;27.51;76.90
59409;BME280;45213;32.654;-115.458;2022-09-12T11:01:58;101195.59;;;27.39;76.46
59409;BME280;45213;32.654;-115.458;2022-09-12T11:04:42;101184.28;;;27.34;76.82
59409;BME280;45213;32.654;-115.458;2022-09-12T11:07:46;101192.25;;;27.35;76.49
59409;BME280;45213;32.654;-115.458;2022-09-12T11:10:51;101194.66;;;27.40;76.41
59409;BME280;45213;32.654;-115.458;2022-09-12T11:19:07;101185.06;;;27.36;77.11
59409;BME280;45213;32.654;-115.458;2022-09-12T11:30:08;101217.88;;;27.39;78.53
59409;BME280;45213;32.654;-115.458;2022-09-12T11:35:27;101211.22;;;27.31;79.64
59409;BME280;45213;32.654;-115.458;2022-09-12T11:43:40;101217.16;;;27.36;81.24
59409;BME280;45213;32.654;-115.458;2022-09-12T11:46:30;101219.06;;;27.34;81.93
59409;BME280;45213;32.654;-115.458;2022-09-12T11:52:52;101229.06;;;27.30;83.09
59409;BME280;45213;32.654;-115.458;2022-09-12T11:57:48;101232.13;;;27.22;83.81
59409;BME280;45213;32.654;-115.458;2022-09-12T12:00:19;101220.00;;;27.15;83.75
59409;BME280;45213;32.654;-115.458;2022-09-12T12:08:10;101240.25;;;27.21;83.18
59409;BME280;45213;32.654;-115.458;2022-09-12T12:10:41;101242.03;;;27.20;83.34
59409;BME280;45213;32.654;-115.458;2022-09-12T12:13:16;101241.16;;;27.20;82.24
59409;BME280;45213;32.654;-115.458;2022-09-12T12:15:47;101242.81;;;27.22;82.48
59409;BME280;45213;32.654;-115.458;2022-09-12T12:18:18;101265.00;;;27.24;82.07
59409;BME280;45213;32.654;-115.458;2022-09-12T12:20:48;101265.84;;;27.25;82.04
59409;BME280;45213;32.654;-115.458;2022-09-12T12:23:41;101260.69;;;27.22;81.89
59409;BME280;45213;32.654;-115.458;2022-09-12T12:34:33;101268.78;;;27.20;82.25
59409;BME280;45213;32.654;-115.458;2022-09-12T12:50:19;101269.56;;;27.05;85.26
59409;BME280;45213;32.654;-115.458;2022-09-12T12:55:34;101274.50;;;26.95;84.67
59409;BME280;45213;32.654;-115.458;2022-09-12T12:58:04;101290.97;;;27.05;84.50
59409;BME280;45213;32.654;-115.458;2022-09-12T13:00:38;101284.81;;;27.03;84.19
59409;BME280;45213;32.654;-115.458;2022-09-12T13:05:43;101293.88;;;27.00;83.15
59409;BME280;45213;32.654;-115.458;2022-09-12T13:11:01;101293.16;;;26.97;83.54
59409;BME280;45213;32.654;-115.458;2022-09-12T13:16:05;101289.31;;;26.85;83.77
59409;BME280;45213;32.654;-115.458;2022-09-12T13:18:48;101309.34;;;26.94;83.99
59409;BME280;45213;32.654;-115.458;2022-09-12T13:21:20;101308.09;;;26.83;84.26
59409;BME280;45213;32.654;-115.458;2022-09-12T13:24:11;101301.16;;;26.79;85.52
59409;BME280;45213;32.654;-115.458;2022-09-12T13:26:43;101322.53;;;26.79;85.23
59409;BME280;45213;32.654;-115.458;2022-09-12T13:29:18;101323.56;;;26.77;85.86
59409;BME280;45213;32.654;-115.458;2022-09-12T13:31:54;101327.19;;;26.76;86.11
59409;BME280;45213;32.654;-115.458;2022-09-12T13:34:34;101325.31;;;26.78;86.63
59409;BME280;45213;32.654;-115.458;2022-09-12T13:39:47;101327.19;;;26.76;86.58
59409;BME280;45213;32.654;-115.458;2022-09-12T13:44:55;101323.41;;;26.62;87.22
59409;BME280;45213;32.654;-115.458;2022-09-12T13:47:35;101329.00;;;26.75;86.85
59409;BME280;45213;32.654;-115.458;2022-09-12T13:50:05;101337.94;;;26.74;86.36
59409;BME280;45213;32.654;-115.458;2022-09-12T13:52:37;101337.16;;;26.72;86.51
59409;BME280;45213;32.654;-115.458;2022-09-12T13:55:32;101333.56;;;26.73;86.75
59409;BME280;45213;32.654;-115.458;2022-09-12T13:58:30;101331.75;;;26.74;87.17
59409;BME280;45213;32.654;-115.458;2022-09-12T14:01:15;101350.84;;;26.83;86.56
59409;BME280;45213;32.654;-115.458;2022-09-12T14:06:44;101341.72;;;26.87;86.48
59409;BME280;45213;32.654;-115.458;2022-09-12T14:09:26;101343.13;;;26.95;86.82
59409;BME280;45213;32.654;-115.458;2022-09-12T14:11:55;101349.22;;;26.98;86.98
59409;BME280;45213;32.654;-115.458;2022-09-12T14:14:33;101350.91;;;26.99;86.92
59409;BME280;45213;32.654;-115.458;2022-09-12T14:19:43;101355.09;;;27.05;87.24
59409;BME280;45213;32.654;-115.458;2022-09-12T14:22:14;101355.72;;;27.10;87.70
59409;BME280;45213;32.654;-115.458;2022-09-12T14:24:46;101355.44;;;27.16;87.70
59409;BME280;45213;32.654;-115.458;2022-09-12T14:27:27;101353.41;;;27.21;87.66
59409;BME280;45213;32.654;-115.458;2022-09-12T14:30:19;101363.13;;;27.22;87.61
59409;BME280;45213;32.654;-115.458;2022-09-12T14:35:41;101358.84;;;27.18;88.21
59409;BME280;45213;32.654;-115.458;2022-09-12T14:40:52;101364.41;;;27.33;87.68
59409;BME280;45213;32.654;-115.458;2022-09-12T14:43:30;101359.25;;;27.45;86.78
59409;BME280;45213;32.654;-115.458;2022-09-12T14:46:06;101371.38;;;27.53;86.16
59409;BME280;45213;32.654;-115.458;2022-09-12T14:48:50;101361.69;;;27.50;85.85
59409;BME280;45213;32.654;-115.458;2022-09-12T14:51:32;101366.53;;;27.43;85.52
59409;BME280;45213;32.654;-115.458;2022-09-12T14:54:00;101365.06;;;27.54;85.62
59409;BME280;45213;32.654;-115.458;2022-09-12T14:56:42;101358.19;;;27.65;85.01
59409;BME280;45213;32.654;-115.458;2022-09-12T15:04:44;101366.53;;;28.10;82.57
59409;BME280;45213;32.654;-115.458;2022-09-12T15:07:32;101355.03;;;28.08;82.11
59409;BME280;45213;32.654;-115.458;2022-09-12T15:10:12;101364.78;;;28.09;80.47
59409;BME280;45213;32.654;-115.458;2022-09-12T15:12:41;101358.16;;;28.00;80.07
59409;BME280;45213;32.654;-115.458;2022-09-12T15:15:19;101354.31;;;28.04;79.99
59409;BME280;45213;32.654;-115.458;2022-09-12T15:17:46;101347.88;;;28.24;79.26
59409;BME280;45213;32.654;-115.458;2022-09-12T15:20:13;101357.56;;;28.59;77.78
59409;BME280;45213;32.654;-115.458;2022-09-12T15:22:41;101372.03;;;28.86;75.42
59409;BME280;45213;32.654;-115.458;2022-09-12T15:25:12;101362.50;;;28.97;75.65
59409;BME280;45213;32.654;-115.458;2022-09-12T15:27:39;101347.78;;;29.04;74.54
59409;BME280;45213;32.654;-115.458;2022-09-12T15:30:09;101367.22;;;29.23;71.50
59409;BME280;45213;32.654;-115.458;2022-09-12T15:32:41;101360.03;;;29.38;71.86
59409;BME280;45213;32.654;-115.458;2022-09-12T15:35:16;101342.50;;;29.61;71.19
59409;BME280;45213;32.654;-115.458;2022-09-12T15:37:43;101376.31;;;29.80;69.76
59409;BME280;45213;32.654;-115.458;2022-09-12T15:40:11;101360.53;;;29.59;70.02
59409;BME280;45213;32.654;-115.458;2022-09-12T15:42:41;101357.19;;;29.41;70.14
59409;BME280;45213;32.654;-115.458;2022-09-12T15:45:19;101368.34;;;29.33;70.33
59409;BME280;45213;32.654;-115.458;2022-09-12T15:47:50;101346.84;;;29.05;69.68
59409;BME280;45213;32.654;-115.458;2022-09-12T15:50:16;101367.38;;;29.04;69.91
59409;BME280;45213;32.654;-115.458;2022-09-12T15:52:43;101379.28;;;29.00;70.47
59409;BME280;45213;32.654;-115.458;2022-09-12T15:55:21;101375.34;;;29.06;71.00
59409;BME280;45213;32.654;-115.458;2022-09-12T15:57:49;101367.31;;;29.06;70.82
59409;BME280;45213;32.654;-115.458;2022-09-12T16:00:17;101376.16;;;29.08;73.96
59409;BME280;45213;32.654;-115.458;2022-09-12T16:02:49;101358.47;;;28.89;75.19
59409;BME280;45213;32.654;-115.458;2022-09-12T16:05:22;101376.88;;;28.96;74.57
59409;BME280;45213;32.654;-115.458;2022-09-12T16:07:53;101368.22;;;28.90;74.31
59409;BME280;45213;32.654;-115.458;2022-09-12T16:10:24;101372.63;;;28.91;75.42
59409;BME280;45213;32.654;-115.458;2022-09-12T16:12:51;101388.59;;;29.09;75.43
59409;BME280;45213;32.654;-115.458;2022-09-12T16:15:22;101390.78;;;29.32;74.19
59409;BME280;45213;32.654;-115.458;2022-09-12T16:17:50;101376.13;;;29.38;72.13
59409;BME280;45213;32.654;-115.458;2022-09-12T16:20:17;101374.56;;;29.79;70.67
59409;BME280;45213;32.654;-115.458;2022-09-12T16:22:45;101386.25;;;30.35;68.93
59409;BME280;45213;32.654;-115.458;2022-09-12T16:25:14;101371.38;;;30.56;66.98
59409;BME280;45213;32.654;-115.458;2022-09-12T16:27:42;101376.50;;;30.74;66.10
59409;BME280;45213;32.654;-115.458;2022-09-12T16:30:09;101387.78;;;30.66;66.25
59409;BME280;45213;32.654;-115.458;2022-09-12T16:32:36;101395.84;;;30.66;65.34
59409;BME280;45213;32.654;-115.458;2022-09-12T16:35:03;101399.09;;;30.98;63.13
59409;BME280;45213;32.654;-115.458;2022-09-12T16:37:30;101389.38;;;31.23;60.71
59409;BME280;45213;32.654;-115.458;2022-09-12T16:40:00;101384.19;;;31.20;60.52
59409;BME280;45213;32.654;-115.458;2022-09-12T16:42:27;101387.84;;;31.19;60.78
59409;BME280;45213;32.654;-115.458;2022-09-12T16:44:53;101393.09;;;31.08;61.21
59409;BME280;45213;32.654;-115.458;2022-09-12T16:47:20;101390.31;;;31.09;59.07
59409;BME280;45213;32.654;-115.458;2022-09-12T16:49:46;101381.03;;;31.13;58.86
59409;BME280;45213;32.654;-115.458;2022-09-12T16:52:13;101391.72;;;31.15;58.90
59409;BME280;45213;32.654;-115.458;2022-09-12T16:54:42;101383.91;;;30.85;59.08
59409;BME280;45213;32.654;-115.458;2022-09-12T16:57:14;101365.53;;;30.64;59.51
59409;BME280;45213;32.654;-115.458;2022-09-12T16:59:40;101392.72;;;30.87;59.43
59409;BME280;45213;32.654;-115.458;2022-09-12T17:02:11;101383.78;;;30.86;60.99
59409;BME280;45213;32.654;-115.458;2022-09-12T17:04:39;101368.69;;;30.56;59.44
59409;BME280;45213;32.654;-115.458;2022-09-12T17:07:06;101373.06;;;30.72;57.09
59409;BME280;45213;32.654;-115.458;2022-09-12T17:09:33;101385.44;;;30.89;56.64
59409;BME280;45213;32.654;-115.458;2022-09-12T17:12:00;101383.38;;;30.92;56.27
59409;BME280;45213;32.654;-115.458;2022-09-12T17:14:30;101381.22;;;30.97;56.77
59409;BME280;45213;32.654;-115.458;2022-09-12T17:16:59;101358.41;;;31.56;54.26
59409;BME280;45213;32.654;-115.458;2022-09-12T17:19:29;101386.16;;;31.95;54.21
59409;BME280;45213;32.654;-115.458;2022-09-12T17:21:57;101378.44;;;32.03;53.62
59409;BME280;45213;32.654;-115.458;2022-09-12T17:24:24;101381.63;;;32.08;53.84
59409;BME280;45213;32.654;-115.458;2022-09-12T17:26:53;101374.91;;;32.27;52.88
59409;BME280;45213;32.654;-115.458;2022-09-12T17:29:22;101375.72;;;32.03;53.38
59409;BME280;45213;32.654;-115.458;2022-09-12T17:31:49;101376.81;;;32.00;53.00
59409;BME280;45213;32.654;-115.458;2022-09-12T17:34:15;101361.16;;;31.93;54.09
59409;BME280;45213;32.654;-115.458;2022-09-12T17:36:45;101355.50;;;32.34;52.75
59409;BME280;45213;32.654;-115.458;2022-09-12T17:39:16;101363.75;;;32.44;52.71
59409;BME280;45213;32.654;-115.458;2022-09-12T17:41:43;101356.03;;;32.27;52.23
59409;BME280;45213;32.654;-115.458;2022-09-12T17:44:13;101355.50;;;32.34;51.18
59409;BME280;45213;32.654;-115.458;2022-09-12T17:46:41;101339.38;;;32.21;52.21
59409;BME280;45213;32.654;-115.458;2022-09-12T17:49:11;101345.75;;;32.20;53.03
59409;BME280;45213;32.654;-115.458;2022-09-12T17:51:39;101364.44;;;32.35;52.42
59409;BME280;45213;32.654;-115.458;2022-09-12T17:54:11;101359.78;;;32.37;51.72
59409;BME280;45213;32.654;-115.458;2022-09-12T17:56:39;101335.84;;;32.69;50.58
59409;BME280;45213;32.654;-115.458;2022-09-12T17:59:12;101351.91;;;32.71;49.97
59409;BME280;45213;32.654;-115.458;2022-09-12T18:01:40;101351.66;;;32.74;50.22
59409;BME280;45213;32.654;-115.458;2022-09-12T18:04:25;101345.06;;;32.54;50.40
59409;BME280;45213;32.654;-115.458;2022-09-12T18:06:53;101347.16;;;32.37;50.30
59409;BME280;45213;32.654;-115.458;2022-09-12T18:09:25;101341.63;;;32.28;51.90
59409;BME280;45213;32.654;-115.458;2022-09-12T18:11:55;101325.56;;;32.50;50.88
59409;BME280;45213;32.654;-115.458;2022-09-12T18:14:26;101332.03;;;32.72;50.27
59409;BME280;45213;32.654;-115.458;2022-09-12T18:16:55;101321.69;;;33.25;48.37
59409;BME280;45213;32.654;-115.458;2022-09-12T18:19:23;101314.25;;;33.62;47.82
59409;BME280;45213;32.654;-115.458;2022-09-12T18:21:55;101323.44;;;33.94;45.88
59409;BME280;45213;32.654;-115.458;2022-09-12T18:24:22;101334.25;;;34.16;46.33
59409;BME280;45213;32.654;-115.458;2022-09-12T18:26:48;101319.00;;;33.36;46.82
59409;BME280;45213;32.654;-115.458;2022-09-12T18:29:15;101311.50;;;33.28;47.57
59409;BME280;45213;32.654;-115.458;2022-09-12T18:31:43;101312.38;;;33.85;46.08
59409;BME280;45213;32.654;-115.458;2022-09-12T18:34:12;101316.25;;;34.26;46.16
59409;BME280;45213;32.654;-115.458;2022-09-12T18:36:41;101307.69;;;34.53;44.81
59409;BME280;45213;32.654;-115.458;2022-09-12T18:39:08;101306.31;;;34.59;44.74
59409;BME280;45213;32.654;-115.458;2022-09-12T18:41:35;101307.22;;;34.48;44.00
59409;BME280;45213;32.654;-115.458;2022-09-12T18:44:05;101302.91;;;34.14;45.36
59409;BME280;45213;32.654;-115.458;2022-09-12T18:46:33;101297.66;;;34.44;44.53
59409;BME280;45213;32.654;-115.458;2022-09-12T18:49:00;101298.50;;;34.45;44.59
59409;BME280;45213;32.654;-115.458;2022-09-12T18:51:30;101288.56;;;34.45;44.63
59409;BME280;45213;32.654;-115.458;2022-09-12T18:54:00;101278.38;;;34.38;44.83
59409;BME280;45213;32.654;-115.458;2022-09-12T18:56:32;101286.16;;;34.63;44.36
59409;BME280;45213;32.654;-115.458;2022-09-12T18:59:00;101276.13;;;34.43;44.99
59409;BME280;45213;32.654;-115.458;2022-09-12T19:01:33;101275.22;;;34.65;44.97
59409;BME280;45213;32.654;-115.458;2022-09-12T19:04:00;101266.63;;;34.81;44.64
59409;BME280;45213;32.654;-115.458;2022-09-12T19:06:32;101250.47;;;34.90;43.60
59409;BME280;45213;32.654;-115.458;2022-09-12T19:09:00;101266.00;;;34.56;44.76
59409;BME280;45213;32.654;-115.458;2022-09-12T19:11:27;101267.25;;;34.52;44.81
59409;BME280;45213;32.654;-115.458;2022-09-12T19:13:55;101258.06;;;34.76;44.36
59409;BME280;45213;32.654;-115.458;2022-09-12T19:16:25;101254.22;;;34.57;43.97
59409;BME280;45213;32.654;-115.458;2022-09-12T19:18:54;101258.78;;;34.57;44.53
59409;BME280;45213;32.654;-115.458;2022-09-12T19:21:25;101243.22;;;34.70;44.20
59409;BME280;45213;32.654;-115.458;2022-09-12T19:23:56;101243.28;;;34.80;44.27
59409;BME280;45213;32.654;-115.458;2022-09-12T19:26:24;101234.09;;;35.13;42.31
59409;BME280;45213;32.654;-115.458;2022-09-12T19:28:51;101220.34;;;35.26;42.08
59409;BME280;45213;32.654;-115.458;2022-09-12T19:31:19;101231.91;;;34.86;43.89
59409;BME280;45213;32.654;-115.458;2022-09-12T19:33:47;101235.91;;;34.82;44.00
59409;BME280;45213;32.654;-115.458;2022-09-12T19:36:19;101234.31;;;35.00;43.26
59409;BME280;45213;32.654;-115.458;2022-09-12T19:38:48;101224.84;;;34.94;42.39
59409;BME280;45213;32.654;-115.458;2022-09-12T19:41:15;101225.97;;;34.92;43.96
59409;BME280;45213;32.654;-115.458;2022-09-12T19:43:49;101203.56;;;34.59;43.41
59409;BME280;45213;32.654;-115.458;2022-09-12T19:46:20;101217.19;;;34.58;44.35
59409;BME280;45213;32.654;-115.458;2022-09-12T19:48:47;101217.91;;;34.71;44.12
59409;BME280;45213;32.654;-115.458;2022-09-12T19:51:14;101207.03;;;34.29;44.32
59409;BME280;45213;32.654;-115.458;2022-09-12T19:53:41;101209.44;;;34.64;44.14
59409;BME280;45213;32.654;-115.458;2022-09-12T19:56:10;101193.50;;;34.92;43.18
59409;BME280;45213;32.654;-115.458;2022-09-12T19:58:42;101192.44;;;35.35;42.80
59409;BME280;45213;32.654;-115.458;2022-09-12T20:03:36;101173.56;;;35.54;41.72
59409;BME280;45213;32.654;-115.458;2022-09-12T20:06:15;101189.75;;;35.45;41.86
59409;BME280;45213;32.654;-115.458;2022-09-12T20:08:42;101182.63;;;35.34;41.15
59409;BME280;45213;32.654;-115.458;2022-09-12T20:11:11;101191.63;;;35.44;41.22
59409;BME280;45213;32.654;-115.458;2022-09-12T20:13:41;101182.81;;;34.90;42.19
59409;BME280;45213;32.654;-115.458;2022-09-12T20:16:14;101160.28;;;34.59;42.66
59409;BME280;45213;32.654;-115.458;2022-09-12T20:18:42;101171.88;;;34.29;43.36
59409;BME280;45213;32.654;-115.458;2022-09-12T20:21:18;101158.31;;;33.87;44.61
59409;BME280;45213;32.654;-115.458;2022-09-12T20:23:46;101163.50;;;33.67;44.59
59409;BME280;45213;32.654;-115.458;2022-09-12T20:26:12;101162.38;;;33.70;45.45
59409;BME280;45213;32.654;-115.458;2022-09-12T20:28:40;101168.03;;;33.78;44.54
59409;BME280;45213;32.654;-115.458;2022-09-12T20:31:11;101159.53;;;33.83;44.19
59409;BME280;45213;32.654;-115.458;2022-09-12T20:33:40;101165.06;;;33.81;44.09
59409;BME280;45213;32.654;-115.458;2022-09-12T20:36:15;101163.09;;;33.83;44.09
59409;BME280;45213;32.654;-115.458;2022-09-12T20:38:52;101163.63;;;33.77;43.53
59409;BME280;45213;32.654;-115.458;2022-09-12T20:41:23;101148.50;;;33.75;44.47
59409;BME280;45213;32.654;-115.458;2022-09-12T20:43:55;101150.59;;;33.82;44.48
59409;BME280;45213;32.654;-115.458;2022-09-12T20:46:24;101155.53;;;33.77;44.47
59409;BME280;45213;32.654;-115.458;2022-09-12T20:48:51;101148.19;;;33.57;44.38
59409;BME280;45213;32.654;-115.458;2022-09-12T20:51:19;101133.09;;;33.43;44.92
59409;BME280;45213;32.654;-115.458;2022-09-12T20:53:46;101139.59;;;33.40;44.71
59409;BME280;45213;32.654;-115.458;2022-09-12T20:56:13;101109.34;;;33.03;44.96
59409;BME280;45213;32.654;-115.458;2022-09-12T20:58:40;101105.53;;;32.94;46.40
59409;BME280;45213;32.654;-115.458;2022-09-12T21:01:07;101119.53;;;33.11;45.83
59409;BME280;45213;32.654;-115.458;2022-09-12T21:03:37;101118.31;;;33.15;45.20
59409;BME280;45213;32.654;-115.458;2022-09-12T21:06:05;101115.84;;;32.89;45.53
59409;BME280;45213;32.654;-115.458;2022-09-12T21:08:32;101104.59;;;32.84;44.84
59409;BME280;45213;32.654;-115.458;2022-09-12T21:11:02;101102.00;;;32.82;46.22
59409;BME280;45213;32.654;-115.458;2022-09-12T21:13:29;101082.28;;;32.82;46.92
59409;BME280;45213;32.654;-115.458;2022-09-12T21:16:01;101093.06;;;32.82;46.30
59409;BME280;45213;32.654;-115.458;2022-09-12T21:18:29;101073.66;;;32.88;46.44
59409;BME280;45213;32.654;-115.458;2022-09-12T21:20:56;101095.00;;;32.91;46.34
59409;BME280;45213;32.654;-115.458;2022-09-12T21:23:23;101067.53;;;32.63;46.57
59409;BME280;45213;32.654;-115.458;2022-09-12T21:25:53;101083.97;;;32.72;47.43
59409;BME280;45213;32.654;-115.458;2022-09-12T21:28:20;101058.50;;;32.64;47.63
59409;BME280;45213;32.654;-115.458;2022-09-12T21:30:48;101076.16;;;32.80;47.34
59409;BME280;45213;32.654;-115.458;2022-09-12T21:33:43;101056.53;;;32.89;46.98
59409;BME280;45213;32.654;-115.458;2022-09-12T21:36:16;101050.88;;;32.92;49.77
59409;BME280;45213;32.654;-115.458;2022-09-12T21:38:43;101063.13;;;32.85;47.95
59409;BME280;45213;32.654;-115.458;2022-09-12T21:41:14;101055.78;;;32.87;48.00
59409;BME280;45213;32.654;-115.458;2022-09-12T21:43:43;101048.78;;;32.96;48.59
59409;BME280;45213;32.654;-115.458;2022-09-12T21:46:10;101044.72;;;32.90;47.68
59409;BME280;45213;32.654;-115.458;2022-09-12T21:48:38;101033.22;;;32.77;49.63
59409;BME280;45213;32.654;-115.458;2022-09-12T21:51:04;101036.91;;;32.87;53.35
59409;BME280;45213;32.654;-115.458;2022-09-12T21:53:31;101034.31;;;32.97;52.71
59409;BME280;45213;32.654;-115.458;2022-09-12T21:56:03;101033.56;;;32.95;50.49
59409;BME280;45213;32.654;-115.458;2022-09-12T21:58:34;101036.88;;;32.98;49.54